sensor_id;sensor_type;location;lat;lon;timestamp;pressure;altitude;pressure_sealevel;temperature;humidity
8039;BME280;4062;49.844;8.120;2023-10-09T00:01:01;99887.38;;;17.18;59.03
8039;BME280;4062;49.844;8.120;2023-10-09T00:03:09;99884.72;;;17.18;59.13
8039;BME280;4062;49.844;8.120;2023-10-09T00:05:39;99879.38;;;17.18;59.00
8039;BME280;4062;49.844;8.120;2023-10-09T00:07:55;99880.22;;;17.19;59.06
8039;BME280;4062;49.844;8.120;2023-10-09T00:10:02;99879.38;;;17.18;59.24
8039;BME280;4062;49.844;8.120;2023-10-09T00:12:26;99875.75;;;17.19;59.13
8039;BME280;4062;49.844;8.120;2023-10-09T00:14:32;99863.34;;;17.18;59.05
8039;BME280;4062;49.844;8.120;2023-10-09T00:16:46;99868.69;;;17.18;59.17
8039;BME280;4062;49.844;8.120;2023-10-09T00:18:57;99868.69;;;17.18;59.11
8039;BME280;4062;49.844;8.120;2023-10-09T00:21:06;99867.72;;;17.19;59.13
8039;BME280;4062;49.844;8.120;2023-10-09T00:23:14;99865.13;;;17.18;59.29
8039;BME280;4062;49.844;8.120;2023-10-09T00:25:33;99861.53;;;17.19;59.08
8039;BME280;4062;49.844;8.120;2023-10-09T00:27:42;99864.19;;;17.19;59.06
8039;BME280;4062;49.844;8.120;2023-10-09T00:29:47;99852.66;;;17.18;59.18
8039;BME280;4062;49.844;8.120;2023-10-09T00:31:58;99854.47;;;17.18;59.16
8039;BME280;4062;49.844;8.120;2023-10-09T00:34:22;99854.47;;;17.18;59.03
8039;BME280;4062;49.844;8.120;2023-10-09T00:36:39;99847.34;;;17.18;59.19
8039;BME280;4062;49.844;8.120;2023-10-09T00:38:51;99838.44;;;17.18;59.06
8039;BME280;4062;49.844;8.120;2023-10-09T00:41:00;99845.50;;;17.19;59.31
8039;BME280;4062;49.844;8.120;2023-10-09T00:43:08;99847.34;;;17.18;59.08
8039;BME280;4062;49.844;8.120;2023-10-09T00:45:25;99841.09;;;17.18;59.16
8039;BME280;4062;49.844;8.120;2023-10-09T00:47:34;99844.66;;;17.18;59.03
8039;BME280;4062;49.844;8.120;2023-10-09T00:49:58;99840.25;;;17.17;59.00
8039;BME280;4062;49.844;8.120;2023-10-09T00:52:33;99842.00;;;17.18;58.93
8039;BME280;4062;49.844;8.120;2023-10-09T00:54:46;99850.00;;;17.18;59.22
8039;BME280;4062;49.844;8.120;2023-10-09T00:56:52;99839.31;;;17.18;59.25
8039;BME280;4062;49.844;8.120;2023-10-09T00:59:05;99837.50;;;17.19;59.11
8039;BME280;4062;49.844;8.120;2023-10-09T01:01:20;99835.75;;;17.18;59.25
8039;BME280;4062;49.844;8.120;2023-10-09T01:03:37;99835.75;;;17.18;59.10
8039;BME280;4062;49.844;8.120;2023-10-09T01:05:56;99836.66;;;17.18;59.18
8039;BME280;4062;49.844;8.120;2023-10-09T01:08:19;99832.16;;;17.19;59.08
8039;BME280;4062;49.844;8.120;2023-10-09T01:10:47;99829.56;;;17.17;58.97
8039;BME280;4062;49.844;8.120;2023-10-09T01:13:00;99828.63;;;17.18;59.26
8039;BME280;4062;49.844;8.120;2023-10-09T01:15:05;99810.81;;;17.19;59.28
8039;BME280;4062;49.844;8.120;2023-10-09T01:17:12;99821.47;;;17.19;59.28
8039;BME280;4062;49.844;8.120;2023-10-09T01:19:26;99811.72;;;17.18;59.13
8039;BME280;4062;49.844;8.120;2023-10-09T01:21:38;99817.06;;;17.18;59.30
8039;BME280;4062;49.844;8.120;2023-10-09T01:23:45;99801.94;;;17.18;59.33
8039;BME280;4062;49.844;8.120;2023-10-09T01:26:03;99803.72;;;17.18;59.24
8039;BME280;4062;49.844;8.120;2023-10-09T01:28:07;99804.59;;;17.18;59.09
8039;BME280;4062;49.844;8.120;2023-10-09T01:30:20;99802.78;;;17.19;58.97
8039;BME280;4062;49.844;8.120;2023-10-09T01:32:34;99801.06;;;17.18;59.23
8039;BME280;4062;49.844;8.120;2023-10-09T01:34:38;99795.72;;;17.18;59.22
8039;BME280;4062;49.844;8.120;2023-10-09T01:36:53;99797.44;;;17.19;59.19
8039;BME280;4062;49.844;8.120;2023-10-09T01:39:08;99801.06;;;17.18;59.03
8039;BME280;4062;49.844;8.120;2023-10-09T01:41:33;99807.28;;;17.18;59.09
8039;BME280;4062;49.844;8.120;2023-10-09T01:43:45;99804.59;;;17.18;59.24
8039;BME280;4062;49.844;8.120;2023-10-09T01:45:53;99793.97;;;17.17;59.09
8039;BME280;4062;49.844;8.120;2023-10-09T01:47:55;99798.38;;;17.18;59.25
8039;BME280;4062;49.844;8.120;2023-10-09T01:49:59;99799.28;;;17.18;59.25
8039;BME280;4062;49.844;8.120;2023-10-09T01:52:06;99799.28;;;17.18;59.19
8039;BME280;4062;49.844;8.120;2023-10-09T01:54:18;99792.19;;;17.17;59.26
8039;BME280;4062;49.844;8.120;2023-10-09T01:56:38;99787.72;;;17.18;59.28
8039;BME280;4062;49.844;8.120;2023-10-09T01:58:54;99793.94;;;17.18;59.08
8039;BME280;4062;49.844;8.120;2023-10-09T02:01:08;99780.56;;;17.18;59.09
8039;BME280;4062;49.844;8.120;2023-10-09T02:03:29;99785.03;;;17.18;59.16
8039;BME280;4062;49.844;8.120;2023-10-09T02:05:57;99783.25;;;17.18;59.21
8039;BME280;4062;49.844;8.120;2023-10-09T02:08:19;99778.84;;;17.17;59.29
8039;BME280;4062;49.844;8.120;2023-10-09T02:10:34;99777.91;;;17.18;59.17
8039;BME280;4062;49.844;8.120;2023-10-09T02:12:43;99777.91;;;17.18;59.08
8039;BME280;4062;49.844;8.120;2023-10-09T02:14:53;99777.03;;;17.18;59.28
8039;BME280;4062;49.844;8.120;2023-10-09T02:17:12;99783.25;;;17.18;59.00
8039;BME280;4062;49.844;8.120;2023-10-09T02:19:25;99781.50;;;17.17;58.97
8039;BME280;4062;49.844;8.120;2023-10-09T02:21:56;99776.16;;;17.17;59.08
8039;BME280;4062;49.844;8.120;2023-10-09T02:24:07;99785.03;;;17.18;59.17
8039;BME280;4062;49.844;8.120;2023-10-09T02:26:31;99787.72;;;17.18;59.13
8039;BME280;4062;49.844;8.120;2023-10-09T02:29:09;99788.59;;;17.18;59.35
8039;BME280;4062;49.844;8.120;2023-10-09T02:31:24;99787.72;;;17.18;59.25
8039;BME280;4062;49.844;8.120;2023-10-09T02:33:29;99782.38;;;17.18;59.24
8039;BME280;4062;49.844;8.120;2023-10-09T02:35:42;99782.38;;;17.18;59.05
8039;BME280;4062;49.844;8.120;2023-10-09T02:37:52;99783.28;;;17.17;58.94
8039;BME280;4062;49.844;8.120;2023-10-09T02:39:56;99778.84;;;17.17;59.06
8039;BME280;4062;49.844;8.120;2023-10-09T02:42:36;99785.03;;;17.18;59.15
8039;BME280;4062;49.844;8.120;2023-10-09T02:44:46;99777.91;;;17.18;59.15
8039;BME280;4062;49.844;8.120;2023-10-09T02:46:58;99776.16;;;17.17;59.31
8039;BME280;4062;49.844;8.120;2023-10-09T02:49:28;99776.16;;;17.17;59.26
8039;BME280;4062;49.844;8.120;2023-10-09T02:51:31;99771.69;;;17.18;59.21
8039;BME280;4062;49.844;8.120;2023-10-09T02:54:03;99771.69;;;17.18;59.21
8039;BME280;4062;49.844;8.120;2023-10-09T02:56:46;99777.91;;;17.18;59.12
8039;BME280;4062;49.844;8.120;2023-10-09T02:59:08;99768.16;;;17.17;59.17
8039;BME280;4062;49.844;8.120;2023-10-09T03:01:20;99779.69;;;17.18;58.97
8039;BME280;4062;49.844;8.120;2023-10-09T03:03:25;99767.28;;;17.17;59.32
8039;BME280;4062;49.844;8.120;2023-10-09T03:05:45;99767.28;;;17.17;59.10
8039;BME280;4062;49.844;8.120;2023-10-09T03:07:49;99767.28;;;17.17;59.09
8039;BME280;4062;49.844;8.120;2023-10-09T03:09:56;99765.50;;;17.17;59.09
8039;BME280;4062;49.844;8.120;2023-10-09T03:12:03;99761.00;;;17.18;59.31
8039;BME280;4062;49.844;8.120;2023-10-09T03:14:07;99763.66;;;17.18;59.10
8039;BME280;4062;49.844;8.120;2023-10-09T03:16:11;99756.59;;;17.17;59.24
8039;BME280;4062;49.844;8.120;2023-10-09T03:18:28;99759.25;;;17.17;59.23
8039;BME280;4062;49.844;8.120;2023-10-09T03:20:31;99751.25;;;17.17;59.14
8039;BME280;4062;49.844;8.120;2023-10-09T03:23:02;99754.81;;;17.17;59.26
8039;BME280;4062;49.844;8.120;2023-10-09T03:25:14;99754.81;;;17.17;59.09
8039;BME280;4062;49.844;8.120;2023-10-09T03:27:34;99752.16;;;17.17;59.21
8039;BME280;4062;49.844;8.120;2023-10-09T03:29:47;99746.81;;;17.17;59.02
8039;BME280;4062;49.844;8.120;2023-10-09T03:32:10;99752.16;;;17.17;59.37
8039;BME280;4062;49.844;8.120;2023-10-09T03:34:15;99748.59;;;17.17;59.28
8039;BME280;4062;49.844;8.120;2023-10-09T03:36:20;99748.59;;;17.17;59.20
8039;BME280;4062;49.844;8.120;2023-10-09T03:38:32;99744.13;;;17.17;59.26
8039;BME280;4062;49.844;8.120;2023-10-09T03:40:42;99760.16;;;17.17;59.31
8039;BME280;4062;49.844;8.120;2023-10-09T03:42:49;99752.16;;;17.17;59.17
8039;BME280;4062;49.844;8.120;2023-10-09T03:44:57;99751.25;;;17.17;59.06
8039;BME280;4062;49.844;8.120;2023-10-09T03:47:10;99744.97;;;17.18;59.02
8039;BME280;4062;49.844;8.120;2023-10-09T03:49:17;99751.25;;;17.17;59.26
8039;BME280;4062;49.844;8.120;2023-10-09T03:51:29;99744.97;;;17.18;59.39
8039;BME280;4062;49.844;8.120;2023-10-09T03:53:43;99741.47;;;17.17;59.26
8039;BME280;4062;49.844;8.120;2023-10-09T03:55:52;99733.44;;;17.17;59.15
8039;BME280;4062;49.844;8.120;2023-10-09T03:58:04;99732.56;;;17.17;59.24
8039;BME280;4062;49.844;8.120;2023-10-09T04:00:06;99728.09;;;17.17;59.11
8039;BME280;4062;49.844;8.120;2023-10-09T04:02:18;99728.09;;;17.17;59.30
8039;BME280;4062;49.844;8.120;2023-10-09T04:04:47;99733.44;;;17.17;59.03
8039;BME280;4062;49.844;8.120;2023-10-09T04:06:57;99736.13;;;17.17;59.32
8039;BME280;4062;49.844;8.120;2023-10-09T04:09:06;99733.44;;;17.17;59.24
8039;BME280;4062;49.844;8.120;2023-10-09T04:11:21;99728.09;;;17.17;59.29
8039;BME280;4062;49.844;8.120;2023-10-09T04:13:47;99727.22;;;17.17;59.30
8039;BME280;4062;49.844;8.120;2023-10-09T04:15:53;99738.78;;;17.17;59.03
8039;BME280;4062;49.844;8.120;2023-10-09T04:18:10;99740.56;;;17.17;59.35
8039;BME280;4062;49.844;8.120;2023-10-09T04:20:16;99732.56;;;17.17;59.04
8039;BME280;4062;49.844;8.120;2023-10-09T04:22:47;99737.91;;;17.17;59.13
8039;BME280;4062;49.844;8.120;2023-10-09T04:25:12;99734.38;;;17.16;59.23
8039;BME280;4062;49.844;8.120;2023-10-09T04:27:29;99741.47;;;17.17;59.28
8039;BME280;4062;49.844;8.120;2023-10-09T04:29:38;99747.66;;;17.18;59.11
8039;BME280;4062;49.844;8.120;2023-10-09T04:31:56;99749.47;;;17.17;59.12
8039;BME280;4062;49.844;8.120;2023-10-09T04:34:22;99747.66;;;17.18;59.24
8039;BME280;4062;49.844;8.120;2023-10-09T04:36:41;99741.47;;;17.17;59.35
8039;BME280;4062;49.844;8.120;2023-10-09T04:38:59;99737.06;;;17.16;59.30
8039;BME280;4062;49.844;8.120;2023-10-09T04:41:09;99750.41;;;17.16;59.25
8039;BME280;4062;49.844;8.120;2023-10-09T04:43:14;99745.91;;;17.17;59.32
8039;BME280;4062;49.844;8.120;2023-10-09T04:45:25;99748.59;;;17.17;59.26
8039;BME280;4062;49.844;8.120;2023-10-09T04:47:50;99751.25;;;17.17;59.28
8039;BME280;4062;49.844;8.120;2023-10-09T04:52:28;99747.75;;;17.16;59.34
8039;BME280;4062;49.844;8.120;2023-10-09T04:54:32;99753.94;;;17.17;59.17
8039;BME280;4062;49.844;8.120;2023-10-09T04:56:41;99755.75;;;17.16;59.26
8039;BME280;4062;49.844;8.120;2023-10-09T04:59:09;99753.94;;;17.17;59.10
8039;BME280;4062;49.844;8.120;2023-10-09T05:01:10;99745.91;;;17.17;59.35
8039;BME280;4062;49.844;8.120;2023-10-09T05:03:15;99753.06;;;17.16;59.18
8039;BME280;4062;49.844;8.120;2023-10-09T05:05:30;99753.06;;;17.16;59.23
8039;BME280;4062;49.844;8.120;2023-10-09T05:07:43;99746.00;;;17.15;59.34
8039;BME280;4062;49.844;8.120;2023-10-09T05:09:56;99746.00;;;17.15;59.32
8039;BME280;4062;49.844;8.120;2023-10-09T05:12:08;99746.84;;;17.16;59.13
8039;BME280;4062;49.844;8.120;2023-10-09T05:14:16;99745.06;;;17.16;59.25
8039;BME280;4062;49.844;8.120;2023-10-09T05:16:19;99751.25;;;17.17;59.11
8039;BME280;4062;49.844;8.120;2023-10-09T05:18:26;99748.59;;;17.17;59.32
8039;BME280;4062;49.844;8.120;2023-10-09T05:20:28;99749.53;;;17.16;59.31
8039;BME280;4062;49.844;8.120;2023-10-09T05:22:29;99754.81;;;17.17;59.30
8039;BME280;4062;49.844;8.120;2023-10-09T05:24:31;99753.94;;;17.17;59.10
8039;BME280;4062;49.844;8.120;2023-10-09T05:26:46;99753.06;;;17.16;59.34
8039;BME280;4062;49.844;8.120;2023-10-09T05:28:47;99755.75;;;17.16;59.25
8039;BME280;4062;49.844;8.120;2023-10-09T05:30:55;99758.41;;;17.16;59.18
8039;BME280;4062;49.844;8.120;2023-10-09T05:33:17;99755.75;;;17.16;59.34
8039;BME280;4062;49.844;8.120;2023-10-09T05:35:30;99762.81;;;17.17;59.11
8039;BME280;4062;49.844;8.120;2023-10-09T05:37:40;99753.06;;;17.16;59.25
8039;BME280;4062;49.844;8.120;2023-10-09T05:39:45;99760.16;;;17.17;59.28
8039;BME280;4062;49.844;8.120;2023-10-09T05:42:07;99756.59;;;17.17;59.14
8039;BME280;4062;49.844;8.120;2023-10-09T05:44:19;99749.47;;;17.17;59.32
8039;BME280;4062;49.844;8.120;2023-10-09T05:46:38;99755.75;;;17.16;59.26
8039;BME280;4062;49.844;8.120;2023-10-09T05:48:50;99745.06;;;17.16;59.27
8039;BME280;4062;49.844;8.120;2023-10-09T05:50:55;99743.25;;;17.17;59.11
8039;BME280;4062;49.844;8.120;2023-10-09T05:53:00;99743.34;;;17.15;59.30
8039;BME280;4062;49.844;8.120;2023-10-09T05:55:04;99750.41;;;17.16;59.33
8039;BME280;4062;49.844;8.120;2023-10-09T05:57:24;99755.75;;;17.16;59.21
8039;BME280;4062;49.844;8.120;2023-10-09T05:59:44;99754.84;;;17.16;59.26
8039;BME280;4062;49.844;8.120;2023-10-09T06:02:13;99755.75;;;17.16;59.27
8039;BME280;4062;49.844;8.120;2023-10-09T06:04:34;99753.06;;;17.16;59.36
8039;BME280;4062;49.844;8.120;2023-10-09T06:06:55;99760.16;;;17.17;59.35
8039;BME280;4062;49.844;8.120;2023-10-09T06:09:15;99764.59;;;17.17;59.41
8039;BME280;4062;49.844;8.120;2023-10-09T06:11:17;99766.44;;;17.16;59.07
8039;BME280;4062;49.844;8.120;2023-10-09T06:13:33;99760.19;;;17.16;59.36
8039;BME280;4062;49.844;8.120;2023-10-09T06:15:48;99758.41;;;17.16;59.26
8039;BME280;4062;49.844;8.120;2023-10-09T06:18:10;99767.34;;;17.15;59.40
8039;BME280;4062;49.844;8.120;2023-10-09T06:20:30;99768.16;;;17.17;59.28
8039;BME280;4062;49.844;8.120;2023-10-09T06:22:49;99763.75;;;17.16;59.33
8039;BME280;4062;49.844;8.120;2023-10-09T06:24:57;99759.25;;;17.17;59.25
8039;BME280;4062;49.844;8.120;2023-10-09T06:27:11;99763.75;;;17.16;59.13
8039;BME280;4062;49.844;8.120;2023-10-09T06:29:12;99758.41;;;17.16;59.06
8039;BME280;4062;49.844;8.120;2023-10-09T06:31:17;99753.06;;;17.16;59.33
8039;BME280;4062;49.844;8.120;2023-10-09T06:33:50;99770.88;;;17.16;59.36
8039;BME280;4062;49.844;8.120;2023-10-09T06:36:16;99771.75;;;17.16;59.25
8039;BME280;4062;49.844;8.120;2023-10-09T06:38:19;99771.75;;;17.16;59.34
8039;BME280;4062;49.844;8.120;2023-10-09T06:40:24;99777.09;;;17.16;59.32
8039;BME280;4062;49.844;8.120;2023-10-09T06:42:38;99779.78;;;17.16;59.34
8039;BME280;4062;49.844;8.120;2023-10-09T06:44:39;99769.09;;;17.16;59.12
8039;BME280;4062;49.844;8.120;2023-10-09T06:46:55;99770.88;;;17.16;59.27
8039;BME280;4062;49.844;8.120;2023-10-09T06:48:58;99778.88;;;17.16;59.10
8039;BME280;4062;49.844;8.120;2023-10-09T06:51:08;99780.63;;;17.17;59.29
8039;BME280;4062;49.844;8.120;2023-10-09T06:53:28;99778.03;;;17.15;59.10
8039;BME280;4062;49.844;8.120;2023-10-09T06:55:50;99779.78;;;17.16;59.19
8039;BME280;4062;49.844;8.120;2023-10-09T06:58:03;99778.03;;;17.15;59.15
8039;BME280;4062;49.844;8.120;2023-10-09T07:00:11;99785.13;;;17.16;59.14
8039;BME280;4062;49.844;8.120;2023-10-09T07:02:31;99779.78;;;17.16;59.16
8039;BME280;4062;49.844;8.120;2023-10-09T07:04:47;99785.97;;;17.17;59.33
8039;BME280;4062;49.844;8.120;2023-10-09T07:06:49;99782.44;;;17.16;59.06
8039;BME280;4062;49.844;8.120;2023-10-09T07:08:52;99785.97;;;17.17;59.25
8039;BME280;4062;49.844;8.120;2023-10-09T07:11:06;99782.44;;;17.16;59.06
8039;BME280;4062;49.844;8.120;2023-10-09T07:13:46;99782.44;;;17.16;59.34
8039;BME280;4062;49.844;8.120;2023-10-09T07:15:55;99789.56;;;17.16;59.19
8039;BME280;4062;49.844;8.120;2023-10-09T07:18:15;99786.91;;;17.16;59.19
8039;BME280;4062;49.844;8.120;2023-10-09T07:20:24;99785.13;;;17.16;59.29
8039;BME280;4062;49.844;8.120;2023-10-09T07:22:38;99779.78;;;17.16;59.29
8039;BME280;4062;49.844;8.120;2023-10-09T07:24:55;99778.03;;;17.15;59.12
8039;BME280;4062;49.844;8.120;2023-10-09T07:26:57;99776.22;;;17.16;59.31
8039;BME280;4062;49.844;8.120;2023-10-09T07:29:07;99776.22;;;17.16;59.33
8039;BME280;4062;49.844;8.120;2023-10-09T07:31:20;99776.16;;;17.17;59.17
8039;BME280;4062;49.844;8.120;2023-10-09T07:33:40;99766.44;;;17.16;59.39
8039;BME280;4062;49.844;8.120;2023-10-09T07:36:01;99770.88;;;17.16;59.07
8039;BME280;4062;49.844;8.120;2023-10-09T07:38:20;99773.56;;;17.16;59.33
8039;BME280;4062;49.844;8.120;2023-10-09T07:40:22;99772.63;;;17.17;59.29
8039;BME280;4062;49.844;8.120;2023-10-09T07:42:32;99777.97;;;17.17;59.22
8039;BME280;4062;49.844;8.120;2023-10-09T07:44:44;99781.50;;;17.17;59.06
8039;BME280;4062;49.844;8.120;2023-10-09T07:46:54;99782.44;;;17.16;59.30
8039;BME280;4062;49.844;8.120;2023-10-09T07:49:14;99785.13;;;17.16;59.08
8039;BME280;4062;49.844;8.120;2023-10-09T07:51:25;99794.91;;;17.16;59.02
8039;BME280;4062;49.844;8.120;2023-10-09T07:53:33;99800.25;;;17.16;59.31
8039;BME280;4062;49.844;8.120;2023-10-09T07:55:45;99798.47;;;17.16;59.38
8039;BME280;4062;49.844;8.120;2023-10-09T07:57:56;99787.78;;;17.16;59.18
8039;BME280;4062;49.844;8.120;2023-10-09T07:59:57;99792.25;;;17.16;59.08
8039;BME280;4062;49.844;8.120;2023-10-09T08:02:02;99786.91;;;17.16;59.14
8039;BME280;4062;49.844;8.120;2023-10-09T08:04:04;99796.66;;;17.17;59.04
8039;BME280;4062;49.844;8.120;2023-10-09T08:06:16;99795.78;;;17.16;59.07
8039;BME280;4062;49.844;8.120;2023-10-09T08:08:36;99803.81;;;17.16;59.16
8039;BME280;4062;49.844;8.120;2023-10-09T08:10:45;99806.47;;;17.16;59.04
8039;BME280;4062;49.844;8.120;2023-10-09T08:13:05;99822.50;;;17.16;59.25
8039;BME280;4062;49.844;8.120;2023-10-09T08:15:26;99819.81;;;17.16;59.12
8039;BME280;4062;49.844;8.120;2023-10-09T08:17:54;99811.81;;;17.16;59.25
8039;BME280;4062;49.844;8.120;2023-10-09T08:20:00;99798.47;;;17.16;59.29
8039;BME280;4062;49.844;8.120;2023-10-09T08:22:12;99809.16;;;17.16;59.31
8039;BME280;4062;49.844;8.120;2023-10-09T08:24:25;99814.47;;;17.16;59.16
8039;BME280;4062;49.844;8.120;2023-10-09T08:26:42;99817.16;;;17.16;59.08
8039;BME280;4062;49.844;8.120;2023-10-09T08:29:03;99819.81;;;17.16;59.27
8039;BME280;4062;49.844;8.120;2023-10-09T08:31:20;99814.47;;;17.16;59.17
8039;BME280;4062;49.844;8.120;2023-10-09T08:33:46;99823.34;;;17.17;59.28
8039;BME280;4062;49.844;8.120;2023-10-09T08:35:58;99809.16;;;17.16;59.40
8039;BME280;4062;49.844;8.120;2023-10-09T08:38:10;99815.41;;;17.15;59.11
8039;BME280;4062;49.844;8.120;2023-10-09T08:40:11;99805.59;;;17.16;59.30
8039;BME280;4062;49.844;8.120;2023-10-09T08:42:15;99803.81;;;17.16;59.29
8039;BME280;4062;49.844;8.120;2023-10-09T08:44:20;99806.47;;;17.16;59.10
8039;BME280;4062;49.844;8.120;2023-10-09T08:46:28;99800.25;;;17.16;59.06
8039;BME280;4062;49.844;8.120;2023-10-09T08:48:30;99812.66;;;17.17;59.30
8039;BME280;4062;49.844;8.120;2023-10-09T08:50:33;99807.31;;;17.17;59.30
8039;BME280;4062;49.844;8.120;2023-10-09T08:52:35;99818.00;;;17.17;59.09
8039;BME280;4062;49.844;8.120;2023-10-09T08:54:38;99810.94;;;17.16;59.21
8039;BME280;4062;49.844;8.120;2023-10-09T08:56:40;99802.00;;;17.17;59.28
8039;BME280;4062;49.844;8.120;2023-10-09T08:58:51;99803.81;;;17.16;59.24
8039;BME280;4062;49.844;8.120;2023-10-09T09:00:52;99820.69;;;17.17;59.28
8039;BME280;4062;49.844;8.120;2023-10-09T09:02:56;99831.34;;;17.17;59.28
8039;BME280;4062;49.844;8.120;2023-10-09T09:04:57;99839.38;;;17.17;59.22
8039;BME280;4062;49.844;8.120;2023-10-09T09:06:59;99827.84;;;17.16;59.11
8039;BME280;4062;49.844;8.120;2023-10-09T09:09:11;99817.16;;;17.16;59.17
8039;BME280;4062;49.844;8.120;2023-10-09T09:11:16;99821.59;;;17.16;59.28
8039;BME280;4062;49.844;8.120;2023-10-09T09:13:24;99822.50;;;17.16;59.16
8039;BME280;4062;49.844;8.120;2023-10-09T09:15:28;99830.50;;;17.16;59.25
8039;BME280;4062;49.844;8.120;2023-10-09T09:17:34;99826.03;;;17.17;58.98
8039;BME280;4062;49.844;8.120;2023-10-09T09:19:37;99828.69;;;17.17;59.13
8039;BME280;4062;49.844;8.120;2023-10-09T09:21:59;99824.22;;;17.17;59.28
8039;BME280;4062;49.844;8.120;2023-10-09T09:24:13;99825.16;;;17.16;59.36
8039;BME280;4062;49.844;8.120;2023-10-09T09:26:20;99833.16;;;17.16;59.06
8039;BME280;4062;49.844;8.120;2023-10-09T09:28:35;99833.16;;;17.16;59.30
8039;BME280;4062;49.844;8.120;2023-10-09T09:31:10;99836.69;;;17.17;59.18
8039;BME280;4062;49.844;8.120;2023-10-09T09:35:31;99842.97;;;17.16;59.13
8039;BME280;4062;49.844;8.120;2023-10-09T09:37:33;99849.19;;;17.16;59.36
8039;BME280;4062;49.844;8.120;2023-10-09T09:39:53;99848.31;;;17.16;59.17
8039;BME280;4062;49.844;8.120;2023-10-09T09:41:58;99850.03;;;17.17;59.31
8039;BME280;4062;49.844;8.120;2023-10-09T09:44:05;99851.88;;;17.16;59.20
8039;BME280;4062;49.844;8.120;2023-10-09T09:46:09;99849.19;;;17.16;59.14
8039;BME280;4062;49.844;8.120;2023-10-09T09:48:15;99835.84;;;17.16;59.12
8039;BME280;4062;49.844;8.120;2023-10-09T09:50:18;99832.28;;;17.16;59.28
8039;BME280;4062;49.844;8.120;2023-10-09T09:52:30;99846.53;;;17.16;59.29
8039;BME280;4062;49.844;8.120;2023-10-09T09:54:39;99857.22;;;17.16;59.06
8039;BME280;4062;49.844;8.120;2023-10-09T09:56:43;99860.72;;;17.17;59.32
8039;BME280;4062;49.844;8.120;2023-10-09T09:58:49;99855.38;;;17.17;59.24
8039;BME280;4062;49.844;8.120;2023-10-09T10:00:59;99850.03;;;17.17;59.14
8039;BME280;4062;49.844;8.120;2023-10-09T10:03:08;99857.22;;;17.16;59.24
8039;BME280;4062;49.844;8.120;2023-10-09T10:05:12;99857.22;;;17.16;59.11
8039;BME280;4062;49.844;8.120;2023-10-09T10:07:17;99865.22;;;17.16;59.34
8039;BME280;4062;49.844;8.120;2023-10-09T10:09:36;99869.63;;;17.17;59.16
8039;BME280;4062;49.844;8.120;2023-10-09T10:11:46;99866.06;;;17.17;59.16
8039;BME280;4062;49.844;8.120;2023-10-09T10:16:10;99865.22;;;17.16;59.11
8039;BME280;4062;49.844;8.120;2023-10-09T10:18:21;99873.22;;;17.16;59.31
8039;BME280;4062;49.844;8.120;2023-10-09T10:20:22;99872.28;;;17.17;59.11
8039;BME280;4062;49.844;8.120;2023-10-09T10:22:27;99863.47;;;17.15;59.07
8039;BME280;4062;49.844;8.120;2023-10-09T10:26:34;99863.41;;;17.17;59.17
8039;BME280;4062;49.844;8.120;2023-10-09T10:28:35;99854.53;;;17.16;59.24
8039;BME280;4062;49.844;8.120;2023-10-09T10:30:46;99852.72;;;17.17;59.32
8039;BME280;4062;49.844;8.120;2023-10-09T10:32:57;99855.38;;;17.17;59.25
8039;BME280;4062;49.844;8.120;2023-10-09T10:34:59;99855.38;;;17.17;58.98
8039;BME280;4062;49.844;8.120;2023-10-09T10:37:07;99855.38;;;17.17;59.28
8039;BME280;4062;49.844;8.120;2023-10-09T10:39:09;99843.84;;;17.16;59.27
8039;BME280;4062;49.844;8.120;2023-10-09T10:41:31;99833.16;;;17.16;59.14
8039;BME280;4062;49.844;8.120;2023-10-09T10:43:39;99821.56;;;17.17;59.15
8039;BME280;4062;49.844;8.120;2023-10-09T10:46:04;99819.81;;;17.16;59.04
8039;BME280;4062;49.844;8.120;2023-10-09T10:48:06;99802.88;;;17.17;59.32
8039;BME280;4062;49.844;8.120;2023-10-09T10:50:10;99804.66;;;17.17;59.03
8039;BME280;4062;49.844;8.120;2023-10-09T10:52:30;99794.88;;;17.17;59.08
8039;BME280;4062;49.844;8.120;2023-10-09T10:54:37;99783.28;;;17.17;59.18
8039;BME280;4062;49.844;8.120;2023-10-09T10:56:38;99795.78;;;17.16;59.07
8039;BME280;4062;49.844;8.120;2023-10-09T10:58:53;99796.66;;;17.17;59.11
8039;BME280;4062;49.844;8.120;2023-10-09T11:01:12;99798.47;;;17.16;59.29
8039;BME280;4062;49.844;8.120;2023-10-09T11:03:19;99810.00;;;17.17;59.05
8039;BME280;4062;49.844;8.120;2023-10-09T11:05:30;99807.31;;;17.17;59.42
8039;BME280;4062;49.844;8.120;2023-10-09T11:07:40;99816.22;;;17.17;59.23
8039;BME280;4062;49.844;8.120;2023-10-09T11:09:48;99820.69;;;17.17;59.17
8039;BME280;4062;49.844;8.120;2023-10-09T11:12:06;99828.69;;;17.17;59.26
8039;BME280;4062;49.844;8.120;2023-10-09T11:14:22;99826.91;;;17.17;59.38
8039;BME280;4062;49.844;8.120;2023-10-09T11:16:26;99822.50;;;17.16;59.30
8039;BME280;4062;49.844;8.120;2023-10-09T11:18:43;99812.66;;;17.17;59.28
8039;BME280;4062;49.844;8.120;2023-10-09T11:20:52;99808.22;;;17.17;59.30
8039;BME280;4062;49.844;8.120;2023-10-09T11:23:06;99787.78;;;17.16;59.36
8039;BME280;4062;49.844;8.120;2023-10-09T11:25:13;99785.97;;;17.17;59.04
8039;BME280;4062;49.844;8.120;2023-10-09T11:27:19;99777.09;;;17.16;59.29
8039;BME280;4062;49.844;8.120;2023-10-09T11:29:23;99777.97;;;17.17;59.44
8039;BME280;4062;49.844;8.120;2023-10-09T11:31:30;99780.63;;;17.17;59.05
8039;BME280;4062;49.844;8.120;2023-10-09T11:33:49;99773.56;;;17.16;59.34
8039;BME280;4062;49.844;8.120;2023-10-09T11:35:56;99775.28;;;17.17;59.05
8039;BME280;4062;49.844;8.120;2023-10-09T11:37:58;99775.28;;;17.17;59.29
8039;BME280;4062;49.844;8.120;2023-10-09T11:40:00;99778.88;;;17.16;58.95
8039;BME280;4062;49.844;8.120;2023-10-09T11:42:03;99775.28;;;17.17;59.18
8039;BME280;4062;49.844;8.120;2023-10-09T11:44:08;99766.34;;;17.18;59.29
8039;BME280;4062;49.844;8.120;2023-10-09T11:46:35;99775.28;;;17.17;59.16
8039;BME280;4062;49.844;8.120;2023-10-09T11:49:03;99780.63;;;17.17;59.25
8039;BME280;4062;49.844;8.120;2023-10-09T11:51:20;99774.34;;;17.18;59.24
8039;BME280;4062;49.844;8.120;2023-10-09T11:53:22;99760.16;;;17.17;59.21
8039;BME280;4062;49.844;8.120;2023-10-09T11:55:23;99759.25;;;17.17;59.09
8039;BME280;4062;49.844;8.120;2023-10-09T11:57:26;99755.75;;;17.16;59.13
8039;BME280;4062;49.844;8.120;2023-10-09T11:59:36;99753.94;;;17.17;59.04
8039;BME280;4062;49.844;8.120;2023-10-09T12:01:45;99747.75;;;17.16;59.17
8039;BME280;4062;49.844;8.120;2023-10-09T12:03:56;99752.16;;;17.17;59.24
8039;BME280;4062;49.844;8.120;2023-10-09T12:06:01;99753.94;;;17.17;59.19
8039;BME280;4062;49.844;8.120;2023-10-09T12:08:07;99743.25;;;17.17;59.37